AAL2311 KDCA-KLGA
Flight info
| Callsign | AAL2311 |
|---|---|
| Flight time | 0h 40m |
| Altitude | 27000 |
| Route | DOCTR5 AGARD SPEAK PROUD2 |
| Aircraft | A321/M-SDE3FGHIRWY/LB1 |
Departure
| Time | 2026-05-03 20:49 |
|---|---|
| Airport | Ronald Reagan Washington National Airport (KDCA) |
Arrival
| Time | 2026-05-03 21:29 |
|---|---|
| Airport | LaGuardia Airport (KLGA) |
| Time | Latitude | Longitude | Altitude | Speed | Heading |
|---|---|---|---|---|---|
| 2026-05-03 20:18 | 38.85558 | -77.04219 | 24 ft | 0 kts | 337° |
| 2026-05-03 20:33 | 38.85541 | -77.04211 | 27 ft | 4 kts | 351° |
| 2026-05-03 20:34 | 38.85516 | -77.04213 | 28 ft | 4 kts | 29° |
| 2026-05-03 20:34 | 38.85504 | -77.04225 | 26 ft | 4 kts | 64° |
| 2026-05-03 20:34 | 38.85501 | -77.04232 | 25 ft | 1 kts | 72° |
| 2026-05-03 20:37 | 38.85514 | -77.04181 | 26 ft | 10 kts | 72° |
| 2026-05-03 20:38 | 38.85528 | -77.04124 | 26 ft | 11 kts | 72° |
| 2026-05-03 20:38 | 38.85553 | -77.04027 | 24 ft | 12 kts | 72° |
| 2026-05-03 20:38 | 38.85524 | -77.03959 | 24 ft | 10 kts | 169° |
| 2026-05-03 20:38 | 38.85446 | -77.03946 | 24 ft | 12 kts | 176° |
| 2026-05-03 20:39 | 38.85355 | -77.03938 | 24 ft | 14 kts | 175° |
| 2026-05-03 20:39 | 38.85253 | -77.03927 | 24 ft | 15 kts | 175° |
| 2026-05-03 20:39 | 38.85141 | -77.03916 | 24 ft | 17 kts | 175° |
| 2026-05-03 20:39 | 38.85020 | -77.03904 | 24 ft | 18 kts | 175° |
| 2026-05-03 20:40 | 38.84889 | -77.03890 | 24 ft | 19 kts | 175° |
| 2026-05-03 20:40 | 38.84761 | -77.03878 | 24 ft | 18 kts | 175° |
| 2026-05-03 20:40 | 38.84630 | -77.03865 | 25 ft | 19 kts | 175° |
| 2026-05-03 20:40 | 38.84489 | -77.03851 | 25 ft | 21 kts | 175° |
| 2026-05-03 20:41 | 38.84347 | -77.03836 | 25 ft | 20 kts | 176° |
| 2026-05-03 20:41 | 38.84249 | -77.03821 | 24 ft | 12 kts | 156° |
| 2026-05-03 20:41 | 38.84224 | -77.03787 | 24 ft | 0 kts | 123° |
| 2026-05-03 20:47 | 38.84223 | -77.03785 | 24 ft | 1 kts | 123° |
| 2026-05-03 20:47 | 38.84197 | -77.03737 | 26 ft | 12 kts | 124° |
| 2026-05-03 20:48 | 38.84217 | -77.03681 | 24 ft | 6 kts | 356° |
| 2026-05-03 20:48 | 38.84272 | -77.03687 | 24 ft | 34 kts | 355° |
| 2026-05-03 20:48 | 38.84775 | -77.03738 | 25 ft | 108 kts | 355° |
| 2026-05-03 20:48 | 38.85713 | -77.03829 | 193 ft | 148 kts | 352° |
| 2026-05-03 20:49 | 38.86725 | -77.03940 | 959 ft | 144 kts | 342° |
| 2026-05-03 20:49 | 38.87593 | -77.04507 | 1730 ft | 140 kts | 317° |
| 2026-05-03 20:49 | 38.88376 | -77.05364 | 2137 ft | 159 kts | 317° |
| 2026-05-03 20:49 | 38.89292 | -77.06358 | 2387 ft | 184 kts | 318° |
| 2026-05-03 20:50 | 38.90240 | -77.07591 | 2711 ft | 206 kts | 301° |
| 2026-05-03 20:50 | 38.90985 | -77.09303 | 3101 ft | 232 kts | 298° |
| 2026-05-03 20:50 | 38.91950 | -77.11023 | 3758 ft | 244 kts | 319° |
| 2026-05-03 20:50 | 38.93346 | -77.12288 | 4652 ft | 247 kts | 325° |
| 2026-05-03 20:51 | 38.94774 | -77.13471 | 5527 ft | 249 kts | 327° |
| 2026-05-03 20:51 | 38.96340 | -77.14517 | 6403 ft | 255 kts | 338° |
| 2026-05-03 20:51 | 38.98122 | -77.14816 | 7211 ft | 265 kts | 1° |
| 2026-05-03 20:51 | 38.99920 | -77.14163 | 8059 ft | 276 kts | 23° |
| 2026-05-03 20:52 | 39.01500 | -77.12701 | 8913 ft | 282 kts | 35° |
| 2026-05-03 20:52 | 39.02836 | -77.10800 | 9740 ft | 293 kts | 52° |
| 2026-05-03 20:52 | 39.03680 | -77.08379 | 10484 ft | 305 kts | 71° |
| 2026-05-03 20:52 | 39.03901 | -77.05624 | 11170 ft | 317 kts | 90° |
| 2026-05-03 20:53 | 39.03711 | -77.02697 | 11460 ft | 340 kts | 92° |
| 2026-05-03 20:53 | 39.03481 | -76.99563 | 11630 ft | 363 kts | 93° |
| 2026-05-03 20:53 | 39.03224 | -76.96249 | 11966 ft | 379 kts | 93° |
| 2026-05-03 20:53 | 39.02959 | -76.92843 | 12580 ft | 386 kts | 93° |
| 2026-05-03 20:54 | 39.02691 | -76.89387 | 13241 ft | 391 kts | 94° |
| 2026-05-03 20:54 | 39.02161 | -76.82368 | 14479 ft | 403 kts | 94° |
| 2026-05-03 20:54 | 39.01892 | -76.78761 | 15092 ft | 408 kts | 94° |
| 2026-05-03 20:55 | 39.01619 | -76.75113 | 15710 ft | 412 kts | 94° |
| 2026-05-03 20:55 | 39.01338 | -76.71374 | 16329 ft | 417 kts | 94° |
| 2026-05-03 20:55 | 39.01056 | -76.67642 | 16945 ft | 422 kts | 95° |
| 2026-05-03 20:55 | 39.00938 | -76.63868 | 17550 ft | 425 kts | 88° |
| 2026-05-03 20:56 | 39.00947 | -76.60041 | 18159 ft | 430 kts | 89° |
| 2026-05-03 20:56 | 39.00958 | -76.56178 | 18725 ft | 435 kts | 88° |
| 2026-05-03 20:56 | 39.00972 | -76.52325 | 19261 ft | 439 kts | 88° |
| 2026-05-03 20:56 | 39.00984 | -76.48380 | 19793 ft | 443 kts | 88° |
| 2026-05-03 20:57 | 39.00992 | -76.44400 | 20342 ft | 447 kts | 88° |
| 2026-05-03 20:57 | 39.01098 | -76.40396 | 20936 ft | 449 kts | 82° |
| 2026-05-03 20:57 | 39.01479 | -76.36391 | 21513 ft | 452 kts | 80° |
| 2026-05-03 20:57 | 39.01875 | -76.32381 | 22056 ft | 455 kts | 80° |
| 2026-05-03 20:58 | 39.02276 | -76.28333 | 22597 ft | 458 kts | 80° |
| 2026-05-03 20:58 | 39.02680 | -76.24255 | 23098 ft | 461 kts | 80° |
| 2026-05-03 20:58 | 39.03085 | -76.20147 | 23596 ft | 465 kts | 80° |
| 2026-05-03 20:58 | 39.03490 | -76.15998 | 24018 ft | 468 kts | 80° |
| 2026-05-03 20:59 | 39.03894 | -76.11833 | 24417 ft | 472 kts | 80° |
| 2026-05-03 20:59 | 39.04303 | -76.07619 | 24786 ft | 477 kts | 80° |
| 2026-05-03 20:59 | 39.04652 | -76.03370 | 24999 ft | 480 kts | 82° |
| 2026-05-03 20:59 | 39.04899 | -75.99068 | 25051 ft | 487 kts | 84° |
| 2026-05-03 21:00 | 39.05076 | -75.94655 | 25050 ft | 501 kts | 85° |
| 2026-05-03 21:00 | 39.05174 | -75.91602 | 25046 ft | 509 kts | 86° |
| 2026-05-03 21:00 | 39.05362 | -75.85484 | 25039 ft | 525 kts | 85° |
| 2026-05-03 21:00 | 39.05766 | -75.80791 | 25034 ft | 530 kts | 75° |
| 2026-05-03 21:01 | 39.06821 | -75.76263 | 25030 ft | 527 kts | 63° |
| 2026-05-03 21:01 | 39.08464 | -75.72090 | 25016 ft | 521 kts | 53° |
| 2026-05-03 21:01 | 39.10597 | -75.68364 | 25015 ft | 513 kts | 43° |
| 2026-05-03 21:01 | 39.13053 | -75.65051 | 25010 ft | 511 kts | 39° |
| 2026-05-03 21:02 | 39.15531 | -75.61771 | 25008 ft | 510 kts | 40° |
| 2026-05-03 21:02 | 39.17989 | -75.58504 | 25002 ft | 499 kts | 40° |
| 2026-05-03 21:02 | 39.20339 | -75.55352 | 25006 ft | 477 kts | 40° |
| 2026-05-03 21:02 | 39.22608 | -75.52367 | 24946 ft | 456 kts | 36° |
| 2026-05-03 21:03 | 39.25046 | -75.49901 | 24710 ft | 438 kts | 26° |
| 2026-05-03 21:03 | 39.27557 | -75.47703 | 24471 ft | 435 kts | 26° |
| 2026-05-03 21:03 | 39.30049 | -75.45511 | 24228 ft | 432 kts | 27° |
| 2026-05-03 21:03 | 39.32525 | -75.43318 | 23991 ft | 431 kts | 27° |
| 2026-05-03 21:04 | 39.34987 | -75.41128 | 23793 ft | 428 kts | 27° |
| 2026-05-03 21:04 | 39.37429 | -75.38954 | 23553 ft | 425 kts | 27° |
| 2026-05-03 21:04 | 39.39855 | -75.36789 | 23277 ft | 423 kts | 27° |
| 2026-05-03 21:04 | 39.42271 | -75.34635 | 22992 ft | 421 kts | 27° |
| 2026-05-03 21:05 | 39.44674 | -75.32492 | 22714 ft | 419 kts | 27° |
| 2026-05-03 21:05 | 39.47063 | -75.30362 | 22442 ft | 417 kts | 27° |
| 2026-05-03 21:05 | 39.49445 | -75.28236 | 22167 ft | 414 kts | 27° |
| 2026-05-03 21:05 | 39.51798 | -75.26124 | 21739 ft | 409 kts | 27° |
| 2026-05-03 21:06 | 39.54117 | -75.23990 | 21329 ft | 409 kts | 28° |
| 2026-05-03 21:06 | 39.56417 | -75.21837 | 20869 ft | 406 kts | 28° |
| 2026-05-03 21:06 | 39.58692 | -75.19684 | 20428 ft | 403 kts | 29° |
| 2026-05-03 21:06 | 39.60948 | -75.17541 | 19986 ft | 401 kts | 29° |
| 2026-05-03 21:07 | 39.63193 | -75.15412 | 19546 ft | 398 kts | 29° |
| 2026-05-03 21:07 | 39.65416 | -75.13310 | 19119 ft | 395 kts | 29° |
| 2026-05-03 21:07 | 39.67631 | -75.11221 | 18694 ft | 392 kts | 28° |
| 2026-05-03 21:07 | 39.69851 | -75.09200 | 18273 ft | 387 kts | 27° |
| 2026-05-03 21:08 | 39.72047 | -75.07286 | 18109 ft | 373 kts | 26° |
| 2026-05-03 21:08 | 39.74174 | -75.05473 | 17984 ft | 359 kts | 25° |
| 2026-05-03 21:08 | 39.76223 | -75.03744 | 17842 ft | 345 kts | 25° |
| 2026-05-03 21:08 | 39.78205 | -75.02073 | 17675 ft | 334 kts | 25° |
| 2026-05-03 21:09 | 39.80132 | -75.00438 | 17394 ft | 327 kts | 25° |
| 2026-05-03 21:09 | 39.82025 | -74.98824 | 17112 ft | 323 kts | 25° |
| 2026-05-03 21:09 | 39.83900 | -74.97223 | 16846 ft | 321 kts | 25° |
| 2026-05-03 21:09 | 39.85759 | -74.95619 | 16577 ft | 320 kts | 26° |
| 2026-05-03 21:10 | 39.87596 | -74.93984 | 16311 ft | 319 kts | 27° |
| 2026-05-03 21:10 | 39.89414 | -74.92333 | 15928 ft | 319 kts | 27° |
| 2026-05-03 21:10 | 39.91228 | -74.90672 | 15485 ft | 319 kts | 28° |
| 2026-05-03 21:10 | 39.92921 | -74.88767 | 15105 ft | 325 kts | 40° |
| 2026-05-03 21:11 | 39.94428 | -74.86582 | 14656 ft | 325 kts | 41° |
| 2026-05-03 21:11 | 39.95930 | -74.84425 | 14142 ft | 317 kts | 41° |
| 2026-05-03 21:11 | 39.97404 | -74.82318 | 13683 ft | 313 kts | 41° |
| 2026-05-03 21:11 | 39.98860 | -74.80237 | 13218 ft | 310 kts | 41° |
| 2026-05-03 21:12 | 40.00306 | -74.78170 | 12781 ft | 307 kts | 41° |
| 2026-05-03 21:12 | 40.01718 | -74.76150 | 12359 ft | 304 kts | 41° |
| 2026-05-03 21:12 | 40.03151 | -74.74098 | 11934 ft | 301 kts | 41° |
| 2026-05-03 21:12 | 40.04537 | -74.72112 | 11516 ft | 299 kts | 41° |
| 2026-05-03 21:13 | 40.05930 | -74.70110 | 11103 ft | 296 kts | 41° |
| 2026-05-03 21:13 | 40.07306 | -74.68133 | 10694 ft | 293 kts | 41° |
| 2026-05-03 21:13 | 40.08671 | -74.66168 | 10272 ft | 291 kts | 41° |
| 2026-05-03 21:13 | 40.10022 | -74.64227 | 10063 ft | 289 kts | 41° |
| 2026-05-03 21:14 | 40.11373 | -74.62290 | 10064 ft | 288 kts | 41° |
| 2026-05-03 21:14 | 40.12722 | -74.60355 | 10068 ft | 288 kts | 41° |
| 2026-05-03 21:14 | 40.14071 | -74.58418 | 10064 ft | 288 kts | 41° |
| 2026-05-03 21:14 | 40.15419 | -74.56477 | 10065 ft | 288 kts | 41° |
| 2026-05-03 21:15 | 40.16766 | -74.54535 | 10070 ft | 288 kts | 41° |
| 2026-05-03 21:15 | 40.18110 | -74.52594 | 10066 ft | 288 kts | 41° |
| 2026-05-03 21:15 | 40.19456 | -74.50650 | 10065 ft | 288 kts | 41° |
| 2026-05-03 21:15 | 40.20816 | -74.48721 | 10048 ft | 286 kts | 40° |
| 2026-05-03 21:16 | 40.22202 | -74.46897 | 9436 ft | 281 kts | 38° |
| 2026-05-03 21:16 | 40.23606 | -74.45134 | 8759 ft | 279 kts | 37° |
| 2026-05-03 21:16 | 40.25010 | -74.43398 | 8195 ft | 275 kts | 37° |
| 2026-05-03 21:16 | 40.26409 | -74.41670 | 8043 ft | 278 kts | 37° |
| 2026-05-03 21:17 | 40.27817 | -74.39924 | 8057 ft | 280 kts | 37° |
| 2026-05-03 21:17 | 40.28749 | -74.38762 | 8064 ft | 280 kts | 37° |
| 2026-05-03 21:17 | 40.30631 | -74.36398 | 8041 ft | 279 kts | 38° |
| 2026-05-03 21:17 | 40.32025 | -74.34639 | 7705 ft | 278 kts | 38° |
| 2026-05-03 21:18 | 40.33411 | -74.32886 | 7350 ft | 276 kts | 38° |
| 2026-05-03 21:18 | 40.34785 | -74.31142 | 7080 ft | 273 kts | 38° |
| 2026-05-03 21:18 | 40.36141 | -74.29421 | 7056 ft | 276 kts | 38° |
| 2026-05-03 21:18 | 40.37523 | -74.27666 | 7056 ft | 276 kts | 38° |
| 2026-05-03 21:19 | 40.38846 | -74.25973 | 7036 ft | 252 kts | 38° |
| 2026-05-03 21:19 | 40.40044 | -74.24431 | 7054 ft | 237 kts | 37° |
| 2026-05-03 21:19 | 40.41217 | -74.22938 | 7044 ft | 234 kts | 37° |
| 2026-05-03 21:19 | 40.42387 | -74.21459 | 7036 ft | 233 kts | 37° |
| 2026-05-03 21:20 | 40.43554 | -74.19987 | 7032 ft | 233 kts | 36° |
| 2026-05-03 21:20 | 40.44722 | -74.18511 | 7040 ft | 233 kts | 37° |
| 2026-05-03 21:20 | 40.45888 | -74.17032 | 7034 ft | 233 kts | 37° |
| 2026-05-03 21:20 | 40.47064 | -74.15579 | 7017 ft | 228 kts | 32° |
| 2026-05-03 21:21 | 40.48308 | -74.14321 | 6597 ft | 225 kts | 29° |
| 2026-05-03 21:21 | 40.49569 | -74.13110 | 6178 ft | 225 kts | 28° |
| 2026-05-03 21:21 | 40.50832 | -74.11911 | 5771 ft | 223 kts | 28° |
| 2026-05-03 21:21 | 40.52092 | -74.10719 | 5346 ft | 223 kts | 29° |
| 2026-05-03 21:22 | 40.53350 | -74.09528 | 4916 ft | 223 kts | 29° |
| 2026-05-03 21:22 | 40.54604 | -74.08334 | 4502 ft | 222 kts | 29° |
| 2026-05-03 21:22 | 40.55853 | -74.07144 | 4107 ft | 222 kts | 30° |
| 2026-05-03 21:22 | 40.57099 | -74.05955 | 3737 ft | 221 kts | 29° |
| 2026-05-03 21:23 | 40.58338 | -74.04771 | 3375 ft | 220 kts | 30° |
| 2026-05-03 21:23 | 40.59158 | -74.03986 | 3129 ft | 220 kts | 30° |
| 2026-05-03 21:23 | 40.60357 | -74.02830 | 3026 ft | 205 kts | 29° |
| 2026-05-03 21:23 | 40.61470 | -74.01753 | 3043 ft | 194 kts | 29° |
| 2026-05-03 21:24 | 40.62551 | -74.00713 | 3026 ft | 191 kts | 28° |
| 2026-05-03 21:24 | 40.63619 | -73.99690 | 3032 ft | 189 kts | 28° |
| 2026-05-03 21:24 | 40.64678 | -73.98678 | 3028 ft | 188 kts | 27° |
| 2026-05-03 21:24 | 40.65733 | -73.97667 | 3031 ft | 187 kts | 27° |
| 2026-05-03 21:25 | 40.66791 | -73.96688 | 2996 ft | 182 kts | 25° |
| 2026-05-03 21:25 | 40.67832 | -73.95782 | 2952 ft | 178 kts | 25° |
| 2026-05-03 21:25 | 40.68868 | -73.94895 | 2890 ft | 177 kts | 24° |
| 2026-05-03 21:25 | 40.69857 | -73.93922 | 2805 ft | 182 kts | 37° |
| 2026-05-03 21:26 | 40.70728 | -73.92710 | 2539 ft | 181 kts | 39° |
| 2026-05-03 21:26 | 40.71556 | -73.91481 | 2270 ft | 178 kts | 47° |
| 2026-05-03 21:26 | 40.72066 | -73.90010 | 2022 ft | 177 kts | 69° |
| 2026-05-03 21:26 | 40.72328 | -73.88452 | 1789 ft | 169 kts | 71° |
| 2026-05-03 21:27 | 40.72582 | -73.86959 | 1527 ft | 165 kts | 70° |
| 2026-05-03 21:27 | 40.72913 | -73.85548 | 1291 ft | 156 kts | 53° |
| 2026-05-03 21:27 | 40.73539 | -73.84469 | 1156 ft | 146 kts | 33° |
| 2026-05-03 21:27 | 40.74374 | -73.83745 | 957 ft | 139 kts | 14° |
| 2026-05-03 21:28 | 40.75276 | -73.83490 | 715 ft | 129 kts | 351° |
| 2026-05-03 21:28 | 40.76107 | -73.83735 | 455 ft | 121 kts | 324° |
| 2026-05-03 21:28 | 40.76656 | -73.84557 | 255 ft | 121 kts | 302° |
| 2026-05-03 21:28 | 40.77110 | -73.85508 | 92 ft | 124 kts | 302° |
| 2026-05-03 21:29 | 40.77537 | -73.86404 | 14 ft | 96 kts | 302° |
| 2026-05-03 21:29 | 40.77749 | -73.86845 | 14 ft | 34 kts | 301° |
| 2026-05-03 21:29 | 40.77810 | -73.87046 | 14 ft | 21 kts | 282° |
| 2026-05-03 21:29 | 40.77822 | -73.87185 | 13 ft | 13 kts | 271° |
| 2026-05-03 21:30 | 40.77802 | -73.87263 | 15 ft | 9 kts | 215° |
| 2026-05-03 21:30 | 40.77758 | -73.87251 | 16 ft | 7 kts | 122° |
| 2026-05-03 21:30 | 40.77718 | -73.87158 | 15 ft | 16 kts | 119° |
| 2026-05-03 21:30 | 40.77655 | -73.87022 | 15 ft | 16 kts | 123° |
| 2026-05-03 21:31 | 40.77595 | -73.87007 | 18 ft | 7 kts | 209° |
| 2026-05-03 21:31 | 40.77535 | -73.87056 | 20 ft | 13 kts | 212° |
| 2026-05-03 21:31 | 40.77452 | -73.87124 | 20 ft | 13 kts | 212° |
| 2026-05-03 21:31 | 40.77417 | -73.87197 | 20 ft | 10 kts | 275° |
| 2026-05-03 21:32 | 40.77444 | -73.87240 | 20 ft | 5 kts | 0° |
| 2026-05-03 21:32 | 40.77476 | -73.87226 | 20 ft | 2 kts | 21° |
| 2026-05-03 21:32 | 40.77483 | -73.87223 | 20 ft | 0 kts | 21° |